createdAt,value
2022-08-27T00:00:55.277Z,31.87
2022-08-27T00:03:45.976Z,32.57
2022-08-27T00:06:38.017Z,44.30
2022-08-27T00:09:27.744Z,44.03
2022-08-27T00:12:17.575Z,43.60
2022-08-27T00:15:08.976Z,41.30
2022-08-27T00:18:01.150Z,43.37
2022-08-27T00:20:50.837Z,45.33
2022-08-27T00:23:42.991Z,37.10
2022-08-27T00:26:33.105Z,30.13
2022-08-27T00:29:23.187Z,41.80
2022-08-27T00:32:13.127Z,42.80
2022-08-27T00:35:03.058Z,42.50
2022-08-27T00:37:53.830Z,47.83
2022-08-27T00:40:44.297Z,49.97
2022-08-27T00:43:45.133Z,47.23
2022-08-27T00:46:37.851Z,47.67
2022-08-27T00:49:31.709Z,46.73
2022-08-27T00:52:23.237Z,42.70
2022-08-27T00:55:19.524Z,40.87
2022-08-27T00:58:12.945Z,39.73
2022-08-27T01:01:02.485Z,37.13
2022-08-27T01:03:54.240Z,37.87
2022-08-27T01:06:42.803Z,39.73
2022-08-27T01:09:31.472Z,37.50
2022-08-27T01:12:20.518Z,36.37
2022-08-27T01:15:16.913Z,37.63
2022-08-27T01:18:09.769Z,33.90
2022-08-27T01:21:01.677Z,32.50
2022-08-27T01:23:56.438Z,33.50
2022-08-27T01:26:46.331Z,32.20
2022-08-27T01:29:35.386Z,34.70
2022-08-27T01:32:26.564Z,34.70
2022-08-27T01:35:17.327Z,33.70
2022-08-27T01:38:05.856Z,33.43
2022-08-27T01:40:58.295Z,31.40
2022-08-27T01:43:48.421Z,28.50
2022-08-27T01:46:37.045Z,24.70
2022-08-27T01:49:25.660Z,21.57
2022-08-27T01:52:15.944Z,24.27
2022-08-27T01:55:06.452Z,23.60
2022-08-27T01:57:56.064Z,30.17
2022-08-27T02:00:48.503Z,28.57
2022-08-27T02:03:43.468Z,29.30
2022-08-27T02:06:31.989Z,29.73
2022-08-27T02:09:20.876Z,31.00
2022-08-27T02:12:09.866Z,28.30
2022-08-27T02:14:58.354Z,28.57
2022-08-27T02:17:48.739Z,30.73
2022-08-27T02:20:37.649Z,27.97
2022-08-27T02:23:26.191Z,29.57
2022-08-27T02:26:14.743Z,29.77
2022-08-27T02:29:03.322Z,29.57
2022-08-27T02:31:51.907Z,29.07
2022-08-27T02:34:41.801Z,29.50
2022-08-27T02:37:30.326Z,30.80
2022-08-27T02:40:21.249Z,28.53
2022-08-27T02:43:10.023Z,27.50
2022-08-27T02:46:04.608Z,26.27
2022-08-27T02:48:53.117Z,29.30
2022-08-27T02:51:43.018Z,29.20
2022-08-27T02:54:32.322Z,28.03
2022-08-27T02:57:21.097Z,28.23
2022-08-27T03:00:14.138Z,28.40
2022-08-27T03:03:03.288Z,29.07
2022-08-27T03:05:52.590Z,29.97
2022-08-27T03:08:52.642Z,26.93
2022-08-27T03:11:42.766Z,26.90
2022-08-27T03:14:31.318Z,27.20
2022-08-27T03:17:38.368Z,28.37
2022-08-27T03:20:27.151Z,27.63
2022-08-27T03:23:16.539Z,27.27
2022-08-27T03:26:10.543Z,28.10
2022-08-27T03:28:59.821Z,28.17
2022-08-27T03:31:48.368Z,26.67
2022-08-27T03:34:36.952Z,29.83
2022-08-27T03:37:25.984Z,27.13
2022-08-27T03:40:15.134Z,29.40
2022-08-27T03:43:05.297Z,26.67
2022-08-27T03:46:01.063Z,28.23
2022-08-27T03:48:52.226Z,30.30
2022-08-27T03:51:46.302Z,28.63
2022-08-27T03:54:35.707Z,29.90
2022-08-27T03:57:24.221Z,28.60
2022-08-27T04:00:14.975Z,26.07
2022-08-27T04:03:05.234Z,24.13
2022-08-27T04:05:54.321Z,25.20
2022-08-27T04:08:42.858Z,28.90
2022-08-27T04:11:31.548Z,27.77
2022-08-27T04:14:27.053Z,30.20
2022-08-27T04:17:17.488Z,28.47
2022-08-27T04:20:34.160Z,28.30
2022-08-27T04:23:16.875Z,29.50
2022-08-27T04:26:06.273Z,31.10
2022-08-27T04:28:55.198Z,28.53
2022-08-27T04:31:43.831Z,30.20
2022-08-27T04:34:34.127Z,29.37
2022-08-27T04:37:23.305Z,28.40
2022-08-27T04:40:13.182Z,30.10
2022-08-27T04:43:01.751Z,28.10
2022-08-27T04:45:50.662Z,30.00
2022-08-27T04:48:39.459Z,27.77
2022-08-27T04:51:29.677Z,30.77
2022-08-27T04:54:19.247Z,28.70
2022-08-27T04:57:14.587Z,30.13
2022-08-27T05:00:03.367Z,28.43
2022-08-27T05:02:52.040Z,28.30
2022-08-27T05:05:41.923Z,27.87
2022-08-27T05:08:33.092Z,29.87
2022-08-27T05:11:23.083Z,26.73
2022-08-27T05:14:13.829Z,27.60
2022-08-27T05:17:03.620Z,27.17
2022-08-27T05:19:52.142Z,27.50
2022-08-27T05:22:40.665Z,27.73
2022-08-27T05:25:30.728Z,28.27
2022-08-27T05:28:21.987Z,27.80
2022-08-27T05:31:17.600Z,32.13
2022-08-27T05:34:10.282Z,29.30
2022-08-27T05:37:01.760Z,29.03
2022-08-27T05:39:50.298Z,29.00
2022-08-27T05:42:40.205Z,30.80
2022-08-27T05:45:29.042Z,28.97
2022-08-27T05:48:17.897Z,27.63
2022-08-27T05:51:11.652Z,26.60
2022-08-27T05:54:03.671Z,30.97
2022-08-27T05:56:55.395Z,30.33
2022-08-27T06:00:02.815Z,27.93
2022-08-27T06:02:51.569Z,32.70
2022-08-27T06:05:40.548Z,32.10
2022-08-27T06:08:29.205Z,31.10
2022-08-27T06:11:19.356Z,29.10
2022-08-27T06:14:08.914Z,31.73
2022-08-27T06:17:01.034Z,32.73
2022-08-27T06:19:49.608Z,31.27
2022-08-27T06:22:38.150Z,31.20
2022-08-27T06:25:26.721Z,32.47
2022-08-27T06:28:15.279Z,29.63
2022-08-27T06:31:05.251Z,32.43
2022-08-27T06:34:00.690Z,29.83
2022-08-27T06:36:55.679Z,29.13
2022-08-27T06:39:44.230Z,32.50
2022-08-27T06:42:32.751Z,30.70
2022-08-27T06:45:23.430Z,31.73
2022-08-27T06:48:12.195Z,34.53
2022-08-27T06:51:08.598Z,29.90
2022-08-27T06:53:58.907Z,31.77
2022-08-27T06:56:49.390Z,37.60
2022-08-27T06:59:38.819Z,35.70
2022-08-27T07:02:29.309Z,32.53
2022-08-27T07:05:19.218Z,34.60
2022-08-27T07:08:11.360Z,31.73
2022-08-27T07:11:01.592Z,33.30
2022-08-27T07:13:51.267Z,28.40
2022-08-27T07:16:40.888Z,33.13
2022-08-27T07:19:30.339Z,32.57
2022-08-27T07:22:18.852Z,34.53
2022-08-27T07:25:10.721Z,31.13
2022-08-27T07:27:59.995Z,34.30
2022-08-27T07:30:48.557Z,35.57
2022-08-27T07:33:37.322Z,34.50
2022-08-27T07:36:27.049Z,32.60
2022-08-27T07:39:16.711Z,36.27
2022-08-27T07:42:24.547Z,32.23
2022-08-27T07:45:13.052Z,30.90
2022-08-27T07:48:01.835Z,33.93
2022-08-27T07:50:50.485Z,30.90
2022-08-27T07:53:39.100Z,31.30
2022-08-27T07:56:27.696Z,28.90
2022-08-27T07:59:17.633Z,26.70
2022-08-27T08:02:06.420Z,27.53
2022-08-27T08:04:55.003Z,25.07
2022-08-27T08:07:43.943Z,24.13
2022-08-27T08:10:35.427Z,25.47
2022-08-27T08:13:24.419Z,24.80
2022-08-27T08:16:15.178Z,24.13
2022-08-27T08:19:04.562Z,27.57
2022-08-27T08:21:59.502Z,22.20
2022-08-27T08:24:49.969Z,27.60
2022-08-27T08:27:38.972Z,23.50
2022-08-27T08:30:28.711Z,22.63
2022-08-27T08:33:25.428Z,25.87
2022-08-27T08:36:16.020Z,28.43
2022-08-27T08:39:04.811Z,28.60
2022-08-27T08:41:55.938Z,26.33
2022-08-27T08:44:48.536Z,25.97
2022-08-27T08:47:44.148Z,26.80
2022-08-27T08:50:40.787Z,27.60
2022-08-27T08:53:37.978Z,25.10
2022-08-27T08:56:29.718Z,25.13
2022-08-27T08:59:23.571Z,27.20
2022-08-27T09:02:14.346Z,28.10
2022-08-27T09:05:05.386Z,28.50
2022-08-27T09:08:28.519Z,28.37
2022-08-27T09:11:18.091Z,25.47
2022-08-27T09:14:17.238Z,25.97
2022-08-27T09:17:10.754Z,27.53
2022-08-27T09:20:00.339Z,27.57
2022-08-27T09:22:54.907Z,28.07
2022-08-27T09:25:45.522Z,25.23
2022-08-27T09:28:51.607Z,28.30
2022-08-27T09:31:40.907Z,25.33
2022-08-27T09:34:36.053Z,25.87
2022-08-27T09:37:33.886Z,29.00
2022-08-27T09:40:28.945Z,29.43
2022-08-27T09:43:23.808Z,24.70
2022-08-27T09:46:20.423Z,28.10
2022-08-27T09:49:14.287Z,26.93
2022-08-27T09:52:03.162Z,24.30
2022-08-27T09:54:55.652Z,30.70
2022-08-27T09:57:44.267Z,30.80
2022-08-27T10:00:37.929Z,29.37
2022-08-27T10:03:29.997Z,30.67
2022-08-27T10:06:28.199Z,27.60
2022-08-27T10:09:19.342Z,29.20
2022-08-27T10:12:11.304Z,26.50
2022-08-27T10:15:02.056Z,29.57
2022-08-27T10:18:01.618Z,26.83
2022-08-27T10:21:05.607Z,29.73
2022-08-27T10:24:04.278Z,27.07
2022-08-27T10:26:59.870Z,27.23
2022-08-27T10:29:55.121Z,24.90
2022-08-27T10:33:01.195Z,29.47
2022-08-27T10:35:59.475Z,25.10
2022-08-27T10:38:52.796Z,28.07
2022-08-27T10:41:45.419Z,28.97
2022-08-27T10:44:45.906Z,25.30
2022-08-27T10:47:50.017Z,27.57
2022-08-27T10:50:45.136Z,26.73
2022-08-27T10:53:38.739Z,27.13
2022-08-27T10:56:32.658Z,26.37
2022-08-27T10:59:27.523Z,27.53
2022-08-27T11:02:24.144Z,25.40
2022-08-27T11:05:18.458Z,26.60
2022-08-27T11:08:12.600Z,26.50
2022-08-27T11:11:35.151Z,27.37
2022-08-27T11:14:20.945Z,28.30
2022-08-27T11:17:13.075Z,28.43
2022-08-27T11:20:08.137Z,28.20
2022-08-27T11:22:58.416Z,26.67
2022-08-27T11:25:54.139Z,28.70
2022-08-27T11:28:45.723Z,26.30
2022-08-27T11:31:38.186Z,28.90
2022-08-27T11:34:31.519Z,29.57
2022-08-27T11:37:36.784Z,32.10
2022-08-27T11:40:40.245Z,26.50
2022-08-27T11:43:33.769Z,28.97
2022-08-27T11:46:25.197Z,30.37
2022-08-27T11:49:24.522Z,29.20
2022-08-27T11:52:13.973Z,28.10
2022-08-27T11:55:14.546Z,31.27
2022-08-27T11:58:08.604Z,27.37
2022-08-27T12:01:04.268Z,26.43
2022-08-27T12:04:02.135Z,25.90
2022-08-27T12:06:53.087Z,28.47
2022-08-27T12:09:58.636Z,28.90
2022-08-27T12:12:56.939Z,28.17
2022-08-27T12:16:01.057Z,26.93
2022-08-27T12:19:00.347Z,30.17
2022-08-27T12:21:58.918Z,31.53
2022-08-27T12:24:55.902Z,30.00
2022-08-27T12:27:55.186Z,29.20
2022-08-27T12:30:50.139Z,27.27
2022-08-27T12:33:43.271Z,26.13
2022-08-27T12:36:33.542Z,28.77
2022-08-27T12:39:27.950Z,29.17
2022-08-27T12:42:20.271Z,28.83
2022-08-27T12:45:09.319Z,30.70
2022-08-27T12:48:01.408Z,25.77
2022-08-27T12:50:54.475Z,25.30
2022-08-27T12:53:45.311Z,30.87
2022-08-27T12:56:52.329Z,30.73
2022-08-27T13:00:02.019Z,29.93
2022-08-27T13:03:04.650Z,29.63
2022-08-27T13:05:57.433Z,27.90
2022-08-27T13:08:46.994Z,30.60
2022-08-27T13:11:47.126Z,26.00
2022-08-27T13:14:37.979Z,27.73
2022-08-27T13:17:39.302Z,27.00
2022-08-27T13:20:28.119Z,28.07
2022-08-27T13:23:20.527Z,27.00
2022-08-27T13:26:11.284Z,27.50
2022-08-27T13:29:03.305Z,24.20
2022-08-27T13:31:52.563Z,25.60
2022-08-27T13:34:41.658Z,26.17
2022-08-27T13:37:34.736Z,25.10
2022-08-27T13:40:30.636Z,24.57
2022-08-27T13:43:19.501Z,27.60
2022-08-27T13:46:11.565Z,25.90
2022-08-27T13:49:00.818Z,28.60
2022-08-27T13:51:49.851Z,24.50
2022-08-27T13:54:37.490Z,24.83
2022-08-27T13:57:31.164Z,27.60
2022-08-27T14:00:26.507Z,27.57
2022-08-27T14:03:31.467Z,28.17
2022-08-27T14:06:25.355Z,25.90
2022-08-27T14:09:23.126Z,24.20
2022-08-27T14:12:12.160Z,23.67
2022-08-27T14:15:16.785Z,23.53
2022-08-27T14:18:08.972Z,28.37
2022-08-27T14:20:58.959Z,27.77
2022-08-27T14:23:48.655Z,23.03
2022-08-27T14:26:37.423Z,23.63
2022-08-27T14:29:25.989Z,24.17
2022-08-27T14:32:17.003Z,27.00
2022-08-27T14:35:06.367Z,23.10
2022-08-27T14:37:55.540Z,27.20
2022-08-27T14:40:44.524Z,27.83
2022-08-27T14:43:34.571Z,24.30
2022-08-27T14:46:26.765Z,24.80
2022-08-27T14:49:21.993Z,23.47
2022-08-27T14:52:10.707Z,24.23
2022-08-27T14:54:59.351Z,24.50
2022-08-27T14:57:47.910Z,24.53
2022-08-27T15:00:36.509Z,21.70
2022-08-27T15:03:26.098Z,22.03
2022-08-27T15:06:17.308Z,23.60
2022-08-27T15:09:06.438Z,27.30
2022-08-27T15:11:56.989Z,20.27
2022-08-27T15:14:45.562Z,22.10
2022-08-27T15:17:35.521Z,20.70
2022-08-27T15:20:24.349Z,21.40
2022-08-27T15:23:15.719Z,23.47
2022-08-27T15:26:04.382Z,22.23
2022-08-27T15:28:52.911Z,21.00
2022-08-27T15:31:42.101Z,20.30
2022-08-27T15:34:30.980Z,19.43
2022-08-27T15:37:19.737Z,21.63
2022-08-27T15:40:11.667Z,20.50
2022-08-27T15:43:03.119Z,21.10
2022-08-27T15:45:51.789Z,22.20
2022-08-27T15:48:40.488Z,18.10
2022-08-27T15:51:31.301Z,18.70
2022-08-27T15:54:20.108Z,21.73
2022-08-27T15:57:10.131Z,21.10
2022-08-27T15:59:59.018Z,20.33
2022-08-27T16:02:48.145Z,20.47
2022-08-27T16:05:39.858Z,18.53
2022-08-27T16:08:28.667Z,18.23
2022-08-27T16:11:22.900Z,18.63
2022-08-27T16:14:12.981Z,19.10
2022-08-27T16:17:01.709Z,18.27
2022-08-27T16:19:50.418Z,20.43
2022-08-27T16:22:39.625Z,17.63
2022-08-27T16:25:28.345Z,19.20
2022-08-27T16:28:16.912Z,20.70
2022-08-27T16:31:12.006Z,21.67
2022-08-27T16:34:00.904Z,21.97
2022-08-27T16:36:49.495Z,20.50
2022-08-27T16:39:40.696Z,18.73
2022-08-27T16:42:29.392Z,23.00
2022-08-27T16:45:19.793Z,22.33
2022-08-27T16:48:27.320Z,24.13
2022-08-27T16:51:18.579Z,20.77
2022-08-27T16:54:07.725Z,19.20
2022-08-27T16:56:56.647Z,22.67
2022-08-27T16:59:45.194Z,20.93
2022-08-27T17:02:35.004Z,21.30
2022-08-27T17:05:33.874Z,19.50
2022-08-27T17:08:26.207Z,22.03
2022-08-27T17:11:17.222Z,18.10
2022-08-27T17:14:05.944Z,22.40
2022-08-27T17:16:54.817Z,18.63
2022-08-27T17:19:43.433Z,17.03
2022-08-27T17:22:33.735Z,16.13
2022-08-27T17:25:22.262Z,17.90
2022-08-27T17:28:18.515Z,18.83
2022-08-27T17:31:08.151Z,18.00
2022-08-27T17:33:59.398Z,22.93
2022-08-27T17:36:48.455Z,20.87
2022-08-27T17:39:38.423Z,17.83
2022-08-27T17:42:27.240Z,21.20
2022-08-27T17:45:17.175Z,21.27
2022-08-27T17:48:12.186Z,18.67
2022-08-27T17:51:03.916Z,16.80
2022-08-27T17:53:59.769Z,20.00
2022-08-27T17:56:50.689Z,17.27
2022-08-27T17:59:39.226Z,17.57
2022-08-27T18:02:31.484Z,19.60
2022-08-27T18:05:21.311Z,20.00
2022-08-27T18:08:09.834Z,20.10
2022-08-27T18:10:58.765Z,22.03
2022-08-27T18:13:53.414Z,22.53
2022-08-27T18:16:41.803Z,20.50
2022-08-27T18:19:30.311Z,23.43
2022-08-27T18:22:18.823Z,25.00
2022-08-27T18:25:08.093Z,23.07
2022-08-27T18:27:59.298Z,23.30
2022-08-27T18:30:52.348Z,20.90
2022-08-27T18:33:41.178Z,19.17
2022-08-27T18:36:30.297Z,24.23
2022-08-27T18:39:19.115Z,22.50
2022-08-27T18:42:07.796Z,22.83
2022-08-27T18:45:01.477Z,22.40
2022-08-27T18:47:57.287Z,23.43
2022-08-27T18:50:48.404Z,26.20
2022-08-27T18:53:39.770Z,24.27
2022-08-27T18:56:28.404Z,23.47
2022-08-27T18:59:17.586Z,21.40
2022-08-27T19:02:06.338Z,23.63
2022-08-27T19:04:56.346Z,24.40
2022-08-27T19:07:44.901Z,26.60
2022-08-27T19:10:33.672Z,23.20
2022-08-27T19:13:22.296Z,24.53
2022-08-27T19:16:14.291Z,28.07
2022-08-27T19:19:04.429Z,30.63
2022-08-27T19:21:54.772Z,26.83
2022-08-27T19:24:43.363Z,27.20
2022-08-27T19:27:32.167Z,24.20
2022-08-27T19:30:20.957Z,26.10
2022-08-27T19:33:09.543Z,24.10
2022-08-27T19:35:58.497Z,24.60
2022-08-27T19:38:50.901Z,26.10
2022-08-27T19:41:39.470Z,26.80
2022-08-27T19:44:28.081Z,27.20
2022-08-27T19:47:21.440Z,22.53
2022-08-27T19:50:10.764Z,24.83
2022-08-27T19:52:59.432Z,27.23
2022-08-27T19:55:49.425Z,28.20
2022-08-27T19:58:38.056Z,27.97
2022-08-27T20:01:26.722Z,26.20
2022-08-27T20:04:15.724Z,26.97
2022-08-27T20:07:04.356Z,27.00
2022-08-27T20:09:52.932Z,28.87
2022-08-27T20:12:44.751Z,29.57
2022-08-27T20:15:34.087Z,28.60
2022-08-27T20:18:23.283Z,27.87
2022-08-27T20:21:12.159Z,26.80
2022-08-27T20:24:00.794Z,27.63
2022-08-27T20:26:49.386Z,27.10
2022-08-27T20:29:41.012Z,29.70
2022-08-27T20:32:30.231Z,27.63
2022-08-27T20:35:19.566Z,26.60
2022-08-27T20:38:08.265Z,26.57
2022-08-27T20:40:56.988Z,26.20
2022-08-27T20:43:45.775Z,27.70
2022-08-27T20:46:37.099Z,26.57
2022-08-27T20:49:27.840Z,29.47
2022-08-27T20:52:16.484Z,29.90
2022-08-27T20:55:06.473Z,27.07
2022-08-27T20:58:12.868Z,28.50
2022-08-27T21:01:02.520Z,25.27
2022-08-27T21:03:52.567Z,26.40
2022-08-27T21:06:41.211Z,27.50
2022-08-27T21:09:29.796Z,26.50
2022-08-27T21:12:22.610Z,25.47
2022-08-27T21:15:12.678Z,24.60
2022-08-27T21:18:01.273Z,24.00
2022-08-27T21:20:51.196Z,26.23
2022-08-27T21:23:40.450Z,25.93
2022-08-27T21:26:30.125Z,27.00
2022-08-27T21:29:19.496Z,27.80
2022-08-27T21:32:09.612Z,27.77
2022-08-27T21:34:58.168Z,26.70
2022-08-27T21:37:49.770Z,26.73
2022-08-27T21:40:38.516Z,24.67
2022-08-27T21:43:27.163Z,27.43
2022-08-27T21:46:15.931Z,27.50
2022-08-27T21:49:04.611Z,27.23
2022-08-27T21:51:53.145Z,26.80
2022-08-27T21:54:43.431Z,28.40
2022-08-27T21:57:32.015Z,26.37
2022-08-27T22:00:39.034Z,29.00
2022-08-27T22:03:27.783Z,24.67
2022-08-27T22:06:16.512Z,28.13
2022-08-27T22:09:05.209Z,26.13
2022-08-27T22:11:55.336Z,26.03
2022-08-27T22:14:43.972Z,24.80
2022-08-27T22:17:32.525Z,25.03
2022-08-27T22:20:21.527Z,26.60
2022-08-27T22:23:13.118Z,26.93
2022-08-27T22:26:01.661Z,25.20
2022-08-27T22:28:51.598Z,26.57
2022-08-27T22:31:40.538Z,24.87
2022-08-27T22:34:29.247Z,25.00
2022-08-27T22:37:17.784Z,25.07
2022-08-27T22:40:19.132Z,23.30
2022-08-27T22:43:09.130Z,23.70
2022-08-27T22:45:59.077Z,21.37
2022-08-27T22:48:47.567Z,19.83
2022-08-27T22:51:36.139Z,21.10
2022-08-27T22:54:24.791Z,23.47
2022-08-27T22:57:13.387Z,24.17
2022-08-27T23:00:02.085Z,23.40
2022-08-27T23:02:52.041Z,23.03
2022-08-27T23:05:42.070Z,23.00
2022-08-27T23:08:31.890Z,22.80
2022-08-27T23:11:20.883Z,23.37
2022-08-27T23:14:09.428Z,24.40
2022-08-27T23:16:58.035Z,21.90
2022-08-27T23:19:47.955Z,23.60
2022-08-27T23:22:37.168Z,20.27
2022-08-27T23:25:44.209Z,22.53
2022-08-27T23:28:32.824Z,21.60
2022-08-27T23:31:22.067Z,23.20
2022-08-27T23:34:10.639Z,25.80
2022-08-27T23:37:00.561Z,25.10
2022-08-27T23:39:49.508Z,23.43
2022-08-27T23:42:38.606Z,23.43
2022-08-27T23:45:27.771Z,22.93
2022-08-27T23:48:16.700Z,24.60
2022-08-27T23:51:05.315Z,25.10
2022-08-27T23:53:55.295Z,25.90
2022-08-27T23:56:43.912Z,24.43
2022-08-27T23:59:32.621Z,27.43
